CheckWX is a tool to help pilots better visualize weather data.  It is not intended as a substitute for an official pre-flight weather briefing.

03:25:04 UTC

KDUB METAR
Dubois Municipal Airport
Dubois, Wyoming, USA
Current

30 mins ago

KDUB 260255Z AUTO 35004KT 10SM OVC100 07/01 A2998 RMK AO2
Observed
May-26 @ 02:55 UTC
Wind
  • 350° at 4 KTS
Visibility
10 SM
Flight Rules
VFR
Cloud Levels
  • Overcast at 10,000' AGL
Temperature
C / 45°F
Dewpoint
C / 34°F
Humidity
66%
Altimeter
29.98" Hg
Pressure
1015.22 hPa
Previous

50 mins ago

KDUB 260235Z AUTO 25007KT 10SM SCT042 BKN100 OVC120 08/00 A2997 RMK AO2
Observed
May-26 @ 02:35 UTC
Wind
  • 250° at 7 KTS
Visibility
10 SM
Flight Rules
VFR
Cloud Levels
  • Scattered at 4,200' AGL
  • Broken at 10,000' AGL
  • Overcast at 12,000' AGL
Temperature
C / 46°F
Dewpoint
C / 32°F
Humidity
57%
Altimeter
29.97" Hg
Pressure
1014.92 hPa
Previous

1 hour ago

KDUB 260215Z AUTO 24011G17KT 10SM -RA SCT045 BKN070 OVC100 07/01 A2997 RMK AO2
Observed
May-26 @ 02:15 UTC
Wind
  • 240° at 11 KTS
  • Gusting to 17 KTS
Visibility
10 SM
Flight Rules
VFR
Conditions
Light Rain
Cloud Levels
  • Scattered at 4,500' AGL
  • Broken at 7,000' AGL
  • Overcast at 10,000' AGL
Temperature
C / 45°F
Dewpoint
C / 34°F
Humidity
66%
Altimeter
29.97" Hg
Pressure
1014.92 hPa